Tiempo atmosférico en la estación meteorológica de Tarragona, Tarragona (60 m.)



Fecha
DESCASC
Temp. máxima en grados centígrados (hora)
DESCASC
Temp. mínima en grados centígrados (hora)
DESCASC
Temp. media en grados centígrados
DESCASC
Racha de viento máxima en m/sg (hora)
DESCASC
Velocidad máxima media en intervalos de 10 minutos(hora)
DESCASC
Precipitaciones diarias en mm
DESCASC
Precipitaciones de 00:00 a 06:00 en mm
DESCASC
Precipitaciones de 06:00 a 12:00 en mm
DESCASC
Precipitaciones de 12:00 a 18:00 en mm
DESCASC
Precipitaciones de 18:00 a 24:00 en mm
DESCASC
15-07-2018 28.7 (14:20) 21.5 (06:30) 25.1 -- (--) -- (--) 0 0 0 0 0
14-07-2018 29.7 (17:40) 21.7 (05:20) 25.7 -- (--) -- (--) 0 0 0 0 0
13-07-2018 29.4 (14:00) 20.8 (06:00) 25.1 -- (--) -- (--) 0 0 0 0 0
12-07-2018 29.3 (16:20) 21.4 (00:00) 25.3 -- (--) -- (--) 0.6 0.6 0 0 0
11-07-2018 28.9 (15:20) 22.1 (00:00) 25.5 -- (--) -- (--) 0.8 0 0 0 0.8
10-07-2018 31.2 (11:40) 22 (00:00) 26.6 -- (--) -- (--) 0 0 0 0 0
09-07-2018 31.3 (14:10) 22.3 (00:00) 26.8 -- (--) -- (--) 0 0 0 0 0
08-07-2018 31 (12:30) 21 (06:30) 26 -- (--) -- (--) 0 0 0 0 0
07-07-2018 29.2 (17:20) 23.3 (00:00) 26.3 -- (--) -- (--) 0 0 0 0 0
06-07-2018 29.5 (17:30) 20.9 (00:00) 25.2 -- (--) -- (--) 0 0 0 0 0
05-07-2018 30.1 (13:00) 21.2 (07:20) 25.7 -- (--) -- (--) 0 0 0 0 0
04-07-2018 28.9 (15:30) 21.2 (06:20) 25.1 -- (--) -- (--) 0 0 0 0 0
03-07-2018 29.2 (16:10) 22.3 (06:30) 25.8 -- (--) -- (--) 0 0 0 0 0
02-07-2018 28.9 (16:30) 22.4 (05:40) 25.6 -- (--) -- (--) 0 0 0 0 0
01-07-2018 28.2 (15:40) 19.7 (00:00) 24 -- (--) -- (--) 0 0 0 0 0
30-06-2018 28.1 (18:10) 20 (06:30) 24.1 -- (--) -- (--) 0 0 0 0 0
29-06-2018 27.7 (13:50) 21.3 (00:00) 24.5 -- (--) -- (--) 0 0 0 0 0
28-06-2018 28.6 (14:10) 22.2 (00:00) 25.4 -- (--) -- (--) 0 0 0 0 0
27-06-2018 28.2 (14:30) 20.7 (00:00) 24.5 -- (--) -- (--) 0 0 0 0 0
26-06-2018 27.5 (16:20) 20.5 (00:00) 24 -- (--) -- (--) 0 0 0 0 0
25-06-2018 27.1 (14:20) 21.1 (00:00) 24.1 -- (--) -- (--) 0 0 0 0 0
24-06-2018 26.6 (14:50) 20 (00:00) 23.3 -- (--) -- (--) 0 0 0 0 0
23-06-2018 27.1 (12:00) 22 (00:00) 24.6 -- (--) -- (--) 0 0 0 0 0
22-06-2018 29.4 (13:20) 20.7 (06:40) 25.1 -- (--) -- (--) 0 0 0 0 0
21-06-2018 28.6 (17:20) 18.3 (00:00) 23.4 -- (--) -- (--) 0 0 0 0 0
20-06-2018 27.9 (14:10) 17.7 (00:00) 22.8 -- (--) -- (--) 0 0 0 0 0
19-06-2018 -- (--) -- (--) -- -- (--) -- (--) -- 0 -- 0 0
18-06-2018 27.9 (13:30) 17.6 (00:00) 22.8 -- (--) -- (--) 0 0 0 0 0
17-06-2018 27.7 (12:20) 15.9 (00:00) 21.8 -- (--) -- (--) 0 0 0 0 0

Gráficas

Temp. máximas Temp. mínimas Temp. medias Precipitaciones Rachas de viento máximas Velocidades máximas media en intervalos de 10 minutos

Datos horarios

Fecha y hora oficial Temperatura (ºC) Velocidad del viento (km/h) Dirección del viento Racha (km/h) Dirección de racha Precipitación (mm) Presión (hPa) Tendencia (hPa) Humedad (%)
2018-07-16 23:00:00 27.7 8 Noroeste 24 Noroeste 0 -- -- 43
2018-07-16 22:00:00 28.9 11 Noroeste 26 Noroeste 0 -- -- 40
2018-07-16 21:00:00 30.2 12 Noroeste 32 Noroeste 0 -- -- 37
2018-07-16 20:00:00 32.1 10 Noroeste 33 Noroeste 0 -- -- 33
2018-07-16 19:00:00 33.5 11 Noroeste 32 Noroeste 0 -- -- 31
2018-07-16 18:00:00 35.1 11 Noroeste 36 Noroeste 0 -- -- 30
2018-07-16 17:00:00 34.6 12 Noroeste 25 Noroeste 0 -- -- 33
2018-07-16 16:00:00 30.3 15 Sudeste 29 Sudeste 0 -- -- 51
2018-07-16 15:00:00 29.4 15 Sudeste 24 Sudeste 0 -- -- 53
2018-07-16 14:00:00 31 6 Sur 21 Norte 0 -- -- 45
2018-07-16 13:00:00 31 7 Noroeste 22 Noroeste 0 -- -- 44
2018-07-16 12:00:00 30.4 11 Noroeste 36 Oeste 0 -- -- 44
2018-07-16 11:00:00 28 12 Noroeste 37 Noroeste 0 -- -- 49
2018-07-16 10:00:00 26.5 12 Noroeste 38 Noroeste 0 -- -- 55
2018-07-16 09:00:00 24.1 14 Noroeste 41 Noroeste 0 -- -- 61
2018-07-16 08:00:00 23.4 7 Noroeste 21 Noroeste 0 -- -- 66
2018-07-16 07:00:00 23.7 5 Noroeste 15 Noroeste 0 -- -- 69
2018-07-16 06:00:00 23.9 4 Noroeste 12 Noroeste 0 -- -- 83
2018-07-16 05:00:00 24.1 0 Calma 7 Norte 0 -- -- 88
2018-07-16 04:00:00 24 6 Noroeste 10 Noroeste 0 -- -- 86
2018-07-16 03:00:00 24.4 0 Calma 5 Este 0 -- -- 88
2018-07-16 02:00:00 24.4 0 Calma 6 Nordeste 0 -- -- 86
2018-07-16 01:00:00 24.8 2 Este 7 Este 0 -- -- 86
2018-07-16 00:00:00 25.3 2 Este 5 Este 0 -- -- 85
2018-07-15 23:00:00 25.8 2 Este 7 Sudeste 0 -- -- 84
2018-07-15 22:00:00 26.3 5 Sudeste 12 Sudeste 0 -- -- 83
2018-07-15 21:00:00 26.7 5 Sudeste 17 Este 0 -- -- 81
2018-07-15 20:00:00 27.2 8 Sudeste 19 Este 0 -- -- 79
2018-07-15 19:00:00 28 8 Sudeste 18 Sudeste 0 -- -- 77
2018-07-15 18:00:00 28.1 12 Sudeste 21 Este 0 -- -- 75
2018-07-15 17:00:00 28.4 11 Sudeste 23 Sudeste 0 -- -- 74
2018-07-15 16:00:00 28.4 10 Sudeste 24 Sudeste 0 -- -- 71
2018-07-15 15:00:00 28.5 13 Sudeste 24 Sudeste 0 -- -- 72
2018-07-15 14:00:00 28.5 11 Sudeste 19 Sudeste 0 -- -- 72
2018-07-15 13:00:00 28.3 10 Sudeste 19 Sudeste 0 -- -- 71
2018-07-15 12:00:00 27.7 11 Sudeste 18 Sudeste 0 -- -- 75
2018-07-15 11:00:00 27.3 11 Sudeste 17 Sudeste 0 -- -- 75
2018-07-15 10:00:00 26.9 4 Sudeste 7 Sudeste 0 -- -- 73
2018-07-15 09:00:00 25.6 3 Norte 6 Noroeste 0 -- -- 77
2018-07-15 08:00:00 22.7 2 Noroeste 5 Noroeste 0 -- -- 82
2018-07-15 07:00:00 21.6 0 Calma 5 Noroeste 0 -- -- 86
2018-07-15 06:00:00 21.6 3 Noroeste 6 Noroeste 0 -- -- 87
2018-07-15 05:00:00 22.2 0 Calma 5 Noroeste 0 -- -- 84
2018-07-15 04:00:00 22.5 4 Noroeste 9 Noroeste 0 -- -- 84
2018-07-15 03:00:00 23 0 Calma 4 Noroeste 0 -- -- 83
2018-07-15 02:00:00 23.7 2 Noroeste 6 Noroeste 0 -- -- 82
2018-07-15 01:00:00 24.7 2 Norte 9 Oeste 0 -- -- 80
2018-07-15 00:00:00 25.5 3 Oeste 10 Sudoeste 0 -- -- 80
2018-07-14 23:00:00 25.9 5 Sudoeste 12 Oeste 0 -- -- 75
2018-07-14 22:00:00 26.2 5 Sudoeste 12 Sudoeste 0 -- -- 73
2018-07-14 21:00:00 26.9 5 Sur 16 Sudoeste 0 -- -- 67
2018-07-14 20:00:00 27.9 5 Sur 15 Sur 0 -- -- 59
2018-07-14 19:00:00 28.4 6 Sudeste 21 Sudeste 0 -- -- 56
2018-07-14 18:00:00 29.3 8 Sur 20 Este 0 -- -- 49
2018-07-14 17:00:00 29.3 10 Sudeste 22 Sudeste 0 -- -- 52
2018-07-14 16:00:00 29.2 11 Sudeste 25 Sudeste 0 -- -- 53
2018-07-14 15:00:00 28.9 10 Sudeste 21 Sudeste 0 -- -- 53
2018-07-14 14:00:00 29 12 Sudeste 19 Sudeste 0 -- -- 50
2018-07-14 13:00:00 28.8 10 Sudeste 21 Sudeste 0 -- -- 50
2018-07-14 12:00:00 28.8 12 Sudeste 19 Sudeste 0 -- -- 46
2018-07-14 11:00:00 28.5 9 Sudeste 13 Sudeste 0 -- -- 42
2018-07-14 10:00:00 28.3 4 Sudeste 8 Sudoeste 0 -- -- 43
2018-07-14 09:00:00 25.3 4 Noroeste 8 Noroeste 0 -- -- 51
2018-07-14 08:00:00 22.6 3 Noroeste 5 Noroeste 0 -- -- 58
2018-07-14 07:00:00 22.2 0 Calma 9 Norte 0 -- -- 57
2018-07-14 06:00:00 22.2 4 Norte 12 Norte 0 -- -- 57
2018-07-14 05:00:00 22 0 Calma 8 Noroeste 0 -- -- 62
2018-07-14 04:00:00 22.6 5 Noroeste 10 Noroeste 0 -- -- 63
2018-07-14 03:00:00 22.5 4 Noroeste 8 Nordeste 0 -- -- 64
2018-07-14 02:00:00 23.1 3 Nordeste 9 Norte 0 -- -- 65
2018-07-14 01:00:00 23.6 0 Calma 8 Norte 0 -- -- 68
2018-07-14 00:00:00 24.6 3 Norte 6 Este 0 -- -- 64
2018-07-13 23:00:00 25.7 4 Este 12 Este 0 -- -- 62
2018-07-13 22:00:00 26 6 Este 18 Este 0 -- -- 62
2018-07-13 21:00:00 26.6 10 Sudeste 18 Sudeste 0 -- -- 57
2018-07-13 20:00:00 27.2 9 Sudeste 16 Sudeste 0 -- -- 52
2018-07-13 19:00:00 27.6 8 Sudeste 20 Sudeste 0 -- -- 55
2018-07-13 18:00:00 28.2 10 Sudeste 23 Sudeste 0 -- -- 56
2018-07-13 17:00:00 28.1 11 Este 26 Sudeste 0 -- -- 56
2018-07-13 16:00:00 27.9 11 Sudeste 25 Sudeste 0 -- -- 58
2018-07-13 15:00:00 28.4 14 Sudeste 27 Sudeste 0 -- -- 56
2018-07-13 14:00:00 29.4 12 Este 25 Este 0 -- -- 51
2018-07-13 13:00:00 29.3 13 Sudeste 24 Sudeste 0 -- -- 47
2018-07-13 12:00:00 28.8 12 Sudeste 19 Sudeste 0 -- -- 45
2018-07-13 11:00:00 28.7 8 Sudeste 17 Sudeste 0 -- -- 44
2018-07-13 10:00:00 28.2 8 Sudeste 15 Este 0 -- -- 49
2018-07-13 09:00:00 25.9 3 Nordeste 9 Nordeste 0 -- -- 51
2018-07-13 08:00:00 22.5 4 Norte 9 Norte 0 -- -- 61
2018-07-13 07:00:00 21.6 2 Norte 11 Noroeste 0 -- -- 65
2018-07-13 06:00:00 20.8 2 Norte 5 Nordeste 0 -- -- 70
2018-07-13 05:00:00 21 0 Calma 4 Noroeste 0 -- -- 71
2018-07-13 04:00:00 21.3 0 Calma 7 Noroeste 0 -- -- 79
2018-07-13 03:00:00 22 0 Calma 6 Norte 0 -- -- 79
2018-07-13 02:00:00 22.6 3 Norte 8 Norte 0 -- -- 78
2018-07-13 01:00:00 22.8 0 Calma 6 Norte 0 -- -- 75
2018-07-13 00:00:00 23.7 0 Calma 9 Este 0 -- -- 75
2018-07-12 23:00:00 24.3 4 Este 10 Este 0 -- -- 75
2018-07-12 22:00:00 24.7 6 Este 19 Este 0 -- -- 76
2018-07-12 21:00:00 25.4 8 Sudeste 23 Este 0 -- -- 78
2018-07-12 20:00:00 26.3 10 Sudeste 22 Sudeste 0 -- -- 75
2018-07-12 19:00:00 27.6 13 Sudeste 26 Nordeste 0 -- -- 69
2018-07-12 18:00:00 28 14 Sudeste 26 Este 0 -- -- 68
2018-07-12 17:00:00 28.8 14 Sudeste 27 Este 0 -- -- 67
2018-07-12 16:00:00 29.1 13 Sudeste 31 Sudeste 0 -- -- 64
2018-07-12 15:00:00 28.8 14 Sudeste 33 Sudeste 0 -- -- 65
2018-07-12 14:00:00 28.8 13 Sudeste 26 Sudeste 0 -- -- 67
2018-07-12 13:00:00 28.4 15 Sudeste 24 Sudeste 0 -- -- 64
2018-07-12 12:00:00 28.8 12 Sudeste 19 Sudeste 0 -- -- 52
2018-07-12 11:00:00 28.5 9 Sudeste 15 Sudeste 0 -- -- 49
2018-07-12 10:00:00 27.3 5 Sudeste 12 Sudeste 0 -- -- 62
2018-07-12 09:00:00 25.2 3 Norte 9 Noroeste 0 -- -- 72
2018-07-12 08:00:00 23.2 3 Norte 13 Nordeste 0 -- -- 78
2018-07-12 07:00:00 21.8 5 Norte 14 Noroeste 0 -- -- 85
2018-07-12 06:00:00 21.6 0 Calma 10 Norte 0 -- -- 83
2018-07-12 05:00:00 21.4 5 Norte 12 Norte 0 -- -- 86
2018-07-12 04:00:00 21.7 6 Noroeste 10 Norte 0 -- -- 86
2018-07-12 03:00:00 22.1 3 Este 11 Noroeste 0 -- -- 85
2018-07-12 02:00:00 22.5 3 Sur 12 Este 0.4 -- -- 84
2018-07-12 01:00:00 23.6 3 Sur 21 Este 0.2 -- -- 79
2018-07-12 00:00:00 23.8 4 Este 19 Este 0.6 -- -- 83
2018-07-11 23:00:00 25.9 8 Sudeste 17 Este 0.2 -- -- 73
2018-07-11 22:00:00 26.2 6 Sudeste 25 Este 0 -- -- 66
2018-07-11 21:00:00 26.2 12 Sudeste 23 Sudeste 0 -- -- 72
2018-07-11 20:00:00 26.5 8 Sudeste 16 Sudeste 0 -- -- 76
2018-07-11 19:00:00 26.8 7 Sur 19 Sudeste 0 -- -- 76
2018-07-11 18:00:00 27.3 9 Sudeste 23 Sudeste 0 -- -- 73
2018-07-11 17:00:00 28.4 12 Sudeste 23 Sudeste 0 -- -- 71
2018-07-11 16:00:00 28.7 12 Sudeste 23 Sudeste 0 -- -- 68
2018-07-11 15:00:00 28.7 14 Sudeste 24 Sudeste 0 -- -- 68
2018-07-11 14:00:00 28.7 15 Sudeste 24 Sur 0 -- -- 67
2018-07-11 13:00:00 28.4 13 Sudeste 21 Sudeste 0 -- -- 67
2018-07-11 12:00:00 27.5 12 Sudeste 18 Sudeste 0 -- -- 71
2018-07-11 11:00:00 27.1 9 Sudeste 18 Sudeste 0 -- -- 72
2018-07-11 10:00:00 27 8 Sudeste 14 Sudeste 0 -- -- 70
2018-07-11 09:00:00 24.8 5 Noroeste 10 Norte 0 -- -- 69
2018-07-11 08:00:00 23.2 4 Noroeste 9 Noroeste 0 -- -- 79
2018-07-11 07:00:00 22.2 2 Noroeste 6 Norte 0 -- -- 86
2018-07-11 06:00:00 22.4 4 Noroeste 9 Noroeste 0 -- -- 87
2018-07-11 05:00:00 23.1 2 Este 6 Este 0 -- -- 86
2018-07-11 04:00:00 23.2 3 Este 6 Este 0 -- -- 86
2018-07-11 03:00:00 23.6 0 Calma 4 Noroeste 0 -- -- 85
2018-07-11 02:00:00 24.4 0 Calma 6 Sudoeste 0 -- -- 83
2018-07-11 01:00:00 24.8 0 Calma 6 Sudoeste 0 -- -- 81
2018-07-11 00:00:00 25 2 Oeste 8 Sudoeste 0 -- -- 78
2018-07-10 23:00:00 25.4 4 Sudoeste 10 Sudoeste 0 -- -- 78
2018-07-10 22:00:00 25.8 5 Sur 12 Sudeste 0 -- -- 79
2018-07-10 21:00:00 26.3 5 Sudoeste 16 Sudoeste 0 -- -- 76
2018-07-10 20:00:00 27.1 7 Sudoeste 17 Sudoeste 0 -- -- 73
2018-07-10 19:00:00 28.2 7 Sudoeste 20 Sudeste 0 -- -- 67
2018-07-10 18:00:00 29.7 9 Sudoeste 23 Sudoeste 0 -- -- 63
2018-07-10 17:00:00 30.5 9 Sudoeste 22 Sur 0 -- -- 59
2018-07-10 16:00:00 29.9 10 Sur 24 Sudeste 0 -- -- 58
2018-07-10 15:00:00 29.7 13 Sudeste 29 Sudeste 0 -- -- 59
2018-07-10 14:00:00 29.9 11 Sudeste 23 Este 0 -- -- 53
2018-07-10 13:00:00 30.1 11 Sudeste 22 Sudeste 0 -- -- 49
2018-07-10 12:00:00 30.9 9 Sudoeste 17 Sudoeste 0 -- -- 45
2018-07-10 11:00:00 29.8 5 Sudoeste 13 Sur 0 -- -- 46
2018-07-10 10:00:00 28.3 5 Noroeste 12 Noroeste 0 -- -- 57
2018-07-10 09:00:00 25.2 4 Noroeste 12 Norte 0 -- -- 69
2018-07-10 08:00:00 22.7 6 Noroeste 10 Noroeste 0 -- -- 77
2018-07-10 07:00:00 22 0 Calma 10 Noroeste 0 -- -- 79
2018-07-10 06:00:00 22.3 0 Calma 9 Noroeste 0 -- -- 82
2018-07-10 05:00:00 22.9 5 Noroeste 10 Noroeste 0 -- -- 82
2018-07-10 04:00:00 23.4 0 Calma 6 Noroeste 0 -- -- 85
2018-07-10 03:00:00 24 0 Calma 5 Este 0 -- -- 83
2018-07-10 02:00:00 24.6 2 Este 5 Este 0 -- -- 82
2018-07-10 01:00:00 25.1 2 Norte 9 Sudeste 0 -- -- 74
2018-07-10 00:00:00 24.7 5 Este 12 Este 0 -- -- 67
2018-07-09 23:00:00 25.1 2 Oeste 16 Noroeste 0 -- -- 68
2018-07-09 22:00:00 26.4 6 Noroeste 21 Oeste 0 -- -- 68
2018-07-09 21:00:00 27.4 10 Oeste 35 Oeste 0 -- -- 64
2018-07-09 20:00:00 28.3 8 Sudoeste 28 Oeste 0 -- -- 66
2018-07-09 19:00:00 29.2 13 Sudoeste 28 Oeste 0 -- -- 62
2018-07-09 18:00:00 30.6 13 Sudoeste 27 Sudoeste 0 -- -- 55
2018-07-09 17:00:00 30.9 9 Sudoeste 28 Sudoeste 0 -- -- 54
2018-07-09 16:00:00 30.7 11 Sudoeste 26 Sudoeste 0 -- -- 61
2018-07-09 15:00:00 30.7 13 Sudoeste 26 Sudoeste 0 -- -- 58
2018-07-09 14:00:00 30.5 11 Sudeste 22 Sudeste 0 -- -- 57
2018-07-09 13:00:00 30 10 Sudeste 20 Sudeste 0 -- -- 53
2018-07-09 12:00:00 29.4 11 Sudeste 22 Sudeste 0 -- -- 62
2018-07-09 11:00:00 30.2 5 Sudoeste 12 Noroeste 0 -- -- 56
2018-07-09 10:00:00 28.2 6 Noroeste 12 Noroeste 0 -- -- 59
2018-07-09 09:00:00 25.5 2 Noroeste 9 Noroeste 0 -- -- 72
2018-07-09 08:00:00 24.4 0 Calma -- -- 0 -- -- 79
2018-07-09 07:00:00 22.4 0 Calma -- -- 0 -- -- 81
2018-07-09 06:00:00 22.5 0 Calma 4 Noroeste 0 -- -- 82
2018-07-09 05:00:00 22.6 0 Calma -- -- 0 -- -- 82
2018-07-09 04:00:00 23 0 Calma 4 Norte 0 -- -- 82
2018-07-09 03:00:00 23.3 0 Calma 5 Noroeste 0 -- -- 79
2018-07-09 02:00:00 23.9 0 Calma 5 Noroeste 0 -- -- 77
2018-07-09 01:00:00 25.3 0 Calma 6 Este 0 -- -- 74
2018-07-09 00:00:00 25.3 0 Calma 6 Oeste 0 -- -- 72
2018-07-08 23:00:00 25.8 4 Sudoeste 13 Sudoeste 0 -- -- 69
2018-07-08 22:00:00 26.4 3 Sur 13 Sur 0 -- -- 69
2018-07-08 21:00:00 27.2 6 Sudoeste 12 Sudoeste 0 -- -- 63
2018-07-08 20:00:00 27.6 6 Sudoeste 17 Sur 0 -- -- 64
2018-07-08 19:00:00 28.2 8 Sudoeste 20 Sudeste 0 -- -- 64
2018-07-08 18:00:00 29.4 10 Sudeste 22 Sudeste 0 -- -- 56
2018-07-08 17:00:00 30.2 10 Sudeste 20 Sudeste 0 -- -- 50
2018-07-08 16:00:00 30.2 13 Sudeste 22 Sudeste 0 -- -- 50
2018-07-08 15:00:00 30.9 13 Sudeste 24 Sudeste 0 -- -- 40
2018-07-08 14:00:00 30.4 11 Sudeste 28 Sudeste 0 -- -- 47
2018-07-08 13:00:00 30.2 12 Este 27 Sudeste 0 -- -- 47
2018-07-08 12:00:00 30.4 9 Sudeste 21 Este 0 -- -- 48
2018-07-08 11:00:00 28.9 5 Sur 12 Sudeste 0 -- -- 53
2018-07-08 10:00:00 27.7 5 Sudoeste 11 Sudoeste 0 -- -- 51
2018-07-08 09:00:00 25.4 2 Sur 10 Noroeste 0 -- -- 57
2018-07-08 08:00:00 22.1 6 Noroeste 14 Noroeste 0 -- -- 67
2018-07-08 07:00:00 21.2 3 Norte 10 Noroeste 0 -- -- 71
2018-07-08 06:00:00 21.3 0 Calma 8 Nordeste 0 -- -- 79
2018-07-08 05:00:00 21.9 0 Calma 8 Este 0 -- -- 85
2018-07-08 04:00:00 22.1 3 Este 13 Este 0 -- -- 85
2018-07-08 03:00:00 22.7 3 Norte 9 Oeste 0 -- -- 84
2018-07-08 02:00:00 23.2 3 Noroeste 13 Sudoeste 0 -- -- 82
2018-07-08 01:00:00 23.6 3 Noroeste 11 Noroeste 0 -- -- 85
2018-07-08 00:00:00 24.2 5 Noroeste 14 Oeste 0 -- -- 83
2018-07-07 23:00:00 24.7 4 Oeste 11 Oeste 0 -- -- 81
2018-07-07 22:00:00 25.2 5 Este 14 Este 0 -- -- 78
2018-07-07 21:00:00 26 7 Sudeste 14 Este 0 -- -- 74
2018-07-07 20:00:00 27.1 5 Sur 13 Sudoeste 0 -- -- 66
2018-07-07 19:00:00 27.4 7 Sur 19 Sudoeste 0 -- -- 65
2018-07-07 18:00:00 28.6 7 Sudoeste 23 Oeste 0 -- -- 65
2018-07-07 17:00:00 28.7 10 Sur 22 Sudoeste 0 -- -- 63
2018-07-07 16:00:00 28.5 8 Sur 24 Sudoeste 0 -- -- 67
2018-07-07 15:00:00 27.5 10 Sur 23 Sudeste 0 -- -- 68
2018-07-07 14:00:00 28.1 10 Sur 22 Sudeste 0 -- -- 68
2018-07-07 13:00:00 28.4 10 Sudoeste 20 Sudoeste 0 -- -- 65
2018-07-07 12:00:00 27.4 10 Sudoeste 25 Sudeste 0 -- -- 72
2018-07-07 11:00:00 27.2 9 Sudeste 19 Sudeste 0 -- -- 73
2018-07-07 10:00:00 27 10 Sudeste 15 Sudeste 0 -- -- 72
2018-07-07 09:00:00 25.4 5 Sudeste 12 Este 0 -- -- 77
2018-07-07 08:00:00 23.9 4 Este 10 Este 0 -- -- 84
2018-07-07 07:00:00 23.3 2 Este 7 Este 0 -- -- 86
2018-07-07 06:00:00 23.6 3 Este 5 Este 0 -- -- 85
2018-07-07 05:00:00 24.1 2 Noroeste 5 Sur 0 -- -- 84
2018-07-07 04:00:00 24.4 0 Calma 6 Sudoeste 0 -- -- 83
2018-07-07 03:00:00 24.7 3 Sudoeste 8 Sur 0 -- -- 83
2018-07-07 02:00:00 24.7 4 Sudoeste 7 Sudeste 0 -- -- 83
2018-07-07 01:00:00 24.9 3 Oeste 10 Sudeste 0 -- -- 82
2018-07-07 00:00:00 25 5 Sudoeste 10 Sudoeste 0 -- -- 79
2018-07-06 23:00:00 25.1 3 Oeste 11 Sudoeste 0 -- -- 78
2018-07-06 22:00:00 25.2 3 Sudoeste 15 Oeste 0 -- -- 77
2018-07-06 21:00:00 25.7 5 Sur 18 Este 0 -- -- 74
2018-07-06 20:00:00 26.3 9 Sur 20 Sur 0 -- -- 68
2018-07-06 19:00:00 27.3 9 Sur 24 Sudoeste 0 -- -- 62
2018-07-06 18:00:00 28.5 13 Sudoeste 25 Sudoeste 0 -- -- 57
2018-07-06 17:00:00 29.1 10 Sur 25 Sudeste 0 -- -- 46
2018-07-06 16:00:00 29.1 11 Sudeste 25 Sudeste 0 -- -- 45
2018-07-06 15:00:00 28.4 14 Sudeste 27 Sudeste 0 -- -- 46
2018-07-06 14:00:00 28.4 13 Sudeste 24 Sudeste 0 -- -- 45
2018-07-06 13:00:00 28.2 10 Sudeste 21 Sudeste 0 -- -- 43
2018-07-06 12:00:00 27.6 10 Sudeste 19 Sudeste 0 -- -- 46
2018-07-06 11:00:00 27.6 4 Sur 15 Sudeste 0 -- -- 42
2018-07-06 10:00:00 26.5 4 Sudoeste 17 Noroeste 0 -- -- 42
2018-07-06 09:00:00 24.2 5 Norte 16 Noroeste 0 -- -- 48
2018-07-06 08:00:00 21.7 0 Calma 6 Sudeste 0 -- -- 55
2018-07-06 07:00:00 20.9 2 Norte 8 Norte 0 -- -- 60
2018-07-06 06:00:00 21.4 5 Noroeste 14 Noroeste 0 -- -- 60
2018-07-06 05:00:00 22.3 5 Noroeste 23 Noroeste 0 -- -- 55
2018-07-06 04:00:00 23.7 5 Noroeste 13 Noroeste 0 -- -- 56
2018-07-06 03:00:00 24.5 7 Sur 18 Sudeste 0 -- -- 81
2018-07-06 02:00:00 24.6 9 Sudeste 20 Este 0 -- -- 81
2018-07-06 01:00:00 24.8 10 Sudeste 21 Sudeste 0 -- -- 80
2018-07-06 00:00:00 25 9 Sudeste 19 Sudeste 0 -- -- 79
2018-07-05 23:00:00 25.4 10 Sudeste 19 Sudeste 0 -- -- 78
2018-07-05 22:00:00 25.5 10 Sudeste 17 Sudeste 0 -- -- 79
2018-07-05 21:00:00 25.8 8 Sudeste 22 Sudoeste 0 -- -- 76
2018-07-05 20:00:00 26.4 9 Sur 24 Sur 0 -- -- 71
2018-07-05 19:00:00 27.4 10 Sudoeste 25 Sudoeste 0 -- -- 67
2018-07-05 18:00:00 28.1 12 Sudeste 26 Sudeste 0 -- -- 64
2018-07-05 17:00:00 28.4 17 Sudeste 30 Sudeste 0 -- -- 62
2018-07-05 16:00:00 29 16 Sudeste 32 Sudeste 0 -- -- 55
2018-07-05 15:00:00 29 17 Sudeste 31 Sudeste 0 -- -- 46
2018-07-05 14:00:00 29.5 15 Sudeste 29 Sudeste 0 -- -- 51
2018-07-05 13:00:00 30.1 11 Sudeste 21 Sudeste 0 -- -- 45
2018-07-05 12:00:00 29.7 10 Sudeste 20 Sudeste 0 -- -- 43
2018-07-05 11:00:00 29.4 8 Oeste 18 Noroeste 0 -- -- 43
2018-07-05 10:00:00 27.3 5 Oeste 13 Noroeste 0 -- -- 49
2018-07-05 09:00:00 24.3 5 Noroeste 13 Norte 0 -- -- 61
2018-07-05 08:00:00 21.9 0 Calma 5 Oeste 0 -- -- 69
2018-07-05 07:00:00 21.3 0 Calma 9 Noroeste 0 -- -- 74
2018-07-05 06:00:00 21.9 0 Calma 5 Nordeste 0 -- -- 80
2018-07-05 05:00:00 22.6 4 Este 12 Este 0 -- -- 81
2018-07-05 04:00:00 22 2 Sur 6 Este 0 -- -- 82
2018-07-05 03:00:00 22.6 0 Calma 3 Norte 0 -- -- 80
2018-07-05 02:00:00 23.2 0 Calma 4 Norte 0 -- -- 78
2018-07-05 01:00:00 23.8 0 Calma 8 Norte 0 -- -- 75
2018-07-05 00:00:00 24.8 2 Noroeste 12 Sudoeste 0 -- -- 72
2018-07-04 23:00:00 25.4 4 Sudoeste 11 Oeste 0 -- -- 69
2018-07-04 22:00:00 25.8 4 Sudoeste 15 Sudeste 0 -- -- 66
2018-07-04 21:00:00 25.9 7 Sudeste 15 Este 0 -- -- 73
2018-07-04 20:00:00 26.3 6 Sudeste 17 Sur 0 -- -- 71
2018-07-04 19:00:00 26.8 9 Sudeste 23 Sur 0 -- -- 72
2018-07-04 18:00:00 28 10 Sudeste 21 Sudeste 0 -- -- 67
2018-07-04 17:00:00 28.4 12 Sudeste 22 Este 0 -- -- 64
2018-07-04 16:00:00 28.4 10 Sudeste 23 Este 0 -- -- 66
2018-07-04 15:00:00 28.7 10 Sudeste 25 Sur 0 -- -- 63
2018-07-04 14:00:00 28 13 Sudeste 23 Sudeste 0 -- -- 65
2018-07-04 13:00:00 28.1 12 Sudeste 22 Este 0 -- -- 67
2018-07-04 12:00:00 28.1 8 Sudeste 22 Nordeste 0 -- -- 66
2018-07-04 11:00:00 27.5 10 Este 19 Sudeste 0 -- -- 69
2018-07-04 10:00:00 26.7 5 Sudeste 18 Este 0 -- -- 71
2018-07-04 09:00:00 24.9 4 Este 15 Este 0 -- -- 76
2018-07-04 08:00:00 22.6 5 Norte 12 Norte 0 -- -- 84
2018-07-04 07:00:00 21.5 2 Este 6 Este 0 -- -- 85
2018-07-04 06:00:00 21.4 2 Sudeste 6 Nordeste 0 -- -- 88
2018-07-04 05:00:00 21.6 0 Calma 6 Este 0 -- -- 88
2018-07-04 04:00:00 22.1 2 Este 5 Este 0 -- -- 89
2018-07-04 03:00:00 22.4 0 Calma 4 Este 0 -- -- 88
2018-07-04 02:00:00 22.9 0 Calma 4 Este 0 -- -- 87
2018-07-04 01:00:00 23.6 0 Calma 4 Este 0 -- -- 85
2018-07-04 00:00:00 24.5 2 Nordeste 10 Este 0 -- -- 81
2018-07-03 23:00:00 25 4 Sudeste 9 Sur 0 -- -- 80
2018-07-03 22:00:00 25.6 6 Sudeste 10 Sudeste 0 -- -- 77
2018-07-03 21:00:00 26 3 Sudeste 17 Sudeste 0 -- -- 74
2018-07-03 20:00:00 26.9 8 Sudeste 17 Sudeste 0 -- -- 70
2018-07-03 19:00:00 27.6 7 Sur 21 Sudeste 0 -- -- 69
2018-07-03 18:00:00 28.7 13 Sudeste 23 Sudeste 0 -- -- 65
2018-07-03 17:00:00 28.7 9 Sur 19 Este 0 -- -- 69
2018-07-03 16:00:00 29.1 12 Sudeste 27 Este 0 -- -- 68
2018-07-03 15:00:00 28.7 12 Sur 24 Sudeste 0 -- -- 69
2018-07-03 14:00:00 29 11 Sudeste 21 Sudeste 0 -- -- 65
2018-07-03 13:00:00 28.5 11 Sudeste 21 Sudeste 0 -- -- 65
2018-07-03 12:00:00 28.5 10 Sudeste 17 Sudeste 0 -- -- 67
2018-07-03 11:00:00 27.9 9 Sudeste 17 Sudeste 0 -- -- 69
2018-07-03 10:00:00 27.4 6 Sudeste 13 Sudeste 0 -- -- 72
2018-07-03 09:00:00 25.6 4 Oeste 9 Noroeste 0 -- -- 77
2018-07-03 08:00:00 23.5 3 Norte 8 Noroeste 0 -- -- 85
2018-07-03 07:00:00 22.4 3 Noroeste 6 Norte 0 -- -- 91
2018-07-03 06:00:00 22.9 2 Noroeste 5 Este 0 -- -- 91
2018-07-03 05:00:00 23.3 0 Calma 5 Este 0 -- -- 91
2018-07-03 04:00:00 23.3 2 Este 6 Este 0 -- -- 90
2018-07-03 03:00:00 23.8 2 Este 5 Este 0 -- -- 88
2018-07-03 02:00:00 24.4 3 Este 5 Este 0 -- -- 86
2018-07-03 01:00:00 25.1 0 Calma 8 Sudeste 0 -- -- 82
2018-07-03 00:00:00 25.7 3 Sur 9 Sudeste 0 -- -- 80
2018-07-02 23:00:00 25.9 3 Sudoeste 11 Sudoeste 0 -- -- 78
2018-07-02 22:00:00 26.1 5 Sudeste 12 Sudoeste 0 -- -- 77
2018-07-02 21:00:00 26.5 5 Sudeste 15 Sudeste 0 -- -- 74
2018-07-02 20:00:00 27.2 7 Sur 14 Sudeste 0 -- -- 70
2018-07-02 19:00:00 27.8 9 Sudeste 21 Sudeste 0 -- -- 68
2018-07-02 18:00:00 28.6 10 Sudeste 20 Sudeste 0 -- -- 64
2018-07-02 17:00:00 28.5 8 Sudeste 19 Sudeste 0 -- -- 68
2018-07-02 16:00:00 28.7 12 Sudeste 24 Sur 0 -- -- 68
2018-07-02 15:00:00 28.8 14 Sudeste 22 Este 0 -- -- 67
2018-07-02 14:00:00 28.5 13 Sudeste 24 Este 0 -- -- 68
2018-07-02 13:00:00 28.6 13 Sudeste 20 Sudeste 0 -- -- 62
2018-07-02 12:00:00 28.1 10 Sudeste 18 Este 0 -- -- 66
2018-07-02 11:00:00 27.3 10 Sudeste 16 Sudeste 0 -- -- 73
2018-07-02 10:00:00 26.3 8 Sudeste 15 Este 0 -- -- 76
2018-07-02 09:00:00 25.1 3 Sudeste 9 Este 0 -- -- 82
2018-07-02 08:00:00 23.5 3 Este 6 Este 0 -- -- 87
2018-07-02 07:00:00 22.5 0 Calma 4 Norte 0 -- -- 90
2018-07-02 06:00:00 22.4 0 Calma 6 Norte 0 -- -- 89
2018-07-02 05:00:00 22.7 0 Calma 5 Norte 0 -- -- 90
2018-07-02 04:00:00 22.9 0 Calma 6 Este 0 -- -- 89
2018-07-02 03:00:00 23.1 0 Calma 6 Este 0 -- -- 87
2018-07-02 02:00:00 23.5 2 Este 6 Este 0 -- -- 85
2018-07-02 01:00:00 24 3 Este 9 Este 0 -- -- 83
2018-07-02 00:00:00 24.1 5 Este 11 Este 0 -- -- 84
2018-07-01 23:00:00 24.3 3 Este 10 Este 0 -- -- 82
2018-07-01 22:00:00 24.5 5 Este 14 Este 0 -- -- 81
2018-07-01 21:00:00 24.9 6 Este 16 Sudeste 0 -- -- 80
2018-07-01 20:00:00 25.7 8 Este 19 Sur 0 -- -- 76
2018-07-01 19:00:00 26.6 10 Sudeste 22 Este 0 -- -- 73
2018-07-01 18:00:00 27.6 9 Sudeste 22 Sudeste 0 -- -- 70
2018-07-01 17:00:00 27.8 10 Este 23 Este 0 -- -- 71
2018-07-01 16:00:00 28 11 Sudeste 26 Este 0 -- -- 69
2018-07-01 15:00:00 28 12 Este 26 Este 0 -- -- 70
2018-07-01 14:00:00 28 13 Este 27 Este 0 -- -- 69
2018-07-01 13:00:00 27.6 13 Sudeste 24 Sudeste 0 -- -- 69
2018-07-01 12:00:00 27.3 13 Sudeste 19 Sudeste 0 -- -- 60
2018-07-01 11:00:00 26.6 10 Sudeste 17 Sur 0 -- -- 61
2018-07-01 10:00:00 26.6 7 Sudeste 16 Este 0 -- -- 61
2018-07-01 09:00:00 24.7 3 Este 9 Norte 0 -- -- 62
2018-07-01 08:00:00 21.4 0 Calma 9 Norte 0 -- -- 63
2018-07-01 07:00:00 20.1 4 Norte 8 Norte 0 -- -- 70
2018-07-01 06:00:00 19.9 2 Noroeste 6 Noroeste 0 -- -- 71
2018-07-01 05:00:00 20.2 0 Calma 3 Nordeste 0 -- -- 71
2018-07-01 04:00:00 20.7 0 Calma 7 Sudeste 0 -- -- 72
2018-07-01 03:00:00 21.6 2 Nordeste 13 Norte 0 -- -- 71
2018-07-01 02:00:00 22.7 3 Norte 10 Nordeste 0 -- -- 64
2018-07-01 01:00:00 22.9 0 Calma 9 Este 0 -- -- 70
2018-07-01 00:00:00 23.7 4 Este 14 Este 0 -- -- 63
2018-06-30 23:00:00 24.2 5 Este 17 Este 0 -- -- 63
2018-06-30 22:00:00 24.9 6 Este 15 Este 0 -- -- 65
2018-06-30 21:00:00 25.8 9 Este 25 Este 0 -- -- 60
2018-06-30 20:00:00 26.5 10 Sudeste 26 Este 0 -- -- 57
2018-06-30 19:00:00 27 14 Sudeste 28 Este 0 -- -- 56
2018-06-30 18:00:00 28 12 Sudeste 23 Sudeste 0 -- -- 51
2018-06-30 17:00:00 27.6 13 Sudeste 30 Sudeste 0 -- -- 58
2018-06-30 16:00:00 27 15 Este 32 Este 0 -- -- 70
2018-06-30 15:00:00 27 16 Sudeste 31 Sudeste 0 -- -- 68
2018-06-30 14:00:00 27.3 13 Sudeste 27 Este 0 -- -- 67
2018-06-30 13:00:00 27.3 11 Sudeste 29 Este 0 -- -- 61
2018-06-30 12:00:00 26.2 14 Sudeste 27 Este 0 -- -- 65
2018-06-30 11:00:00 25.9 13 Sudeste 23 Sudeste 0 -- -- 69
2018-06-30 10:00:00 25.3 11 Sudeste 17 Sudeste 0 -- -- 64
2018-06-30 09:00:00 24.2 5 Sudeste 10 Este 0 -- -- 61
2018-06-30 08:00:00 21.1 0 Calma 4 Noroeste 0 -- -- 70
2018-06-30 07:00:00 20.1 0 Calma 5 Sudeste 0 -- -- 71
2018-06-30 06:00:00 20.2 0 Calma 10 Nordeste 0 -- -- 77
2018-06-30 05:00:00 20.7 3 Nordeste 9 Norte 0 -- -- 74
2018-06-30 04:00:00 21.4 0 Calma 3 Nordeste 0 -- -- 82
2018-06-30 03:00:00 22 0 Calma 6 Nordeste 0 -- -- 82
2018-06-30 02:00:00 22.4 3 Nordeste 7 Norte 0 -- -- 81
2018-06-30 01:00:00 22.7 2 Este 8 Este 0 -- -- 80
2018-06-30 00:00:00 23.1 3 Este 9 Este 0 -- -- 79
2018-06-29 23:00:00 23.6 2 Este 12 Este 0 -- -- 77
2018-06-29 22:00:00 24.1 4 Este 13 Este 0 -- -- 75
2018-06-29 21:00:00 25 7 Este 22 Este 0 -- -- 72
2018-06-29 20:00:00 25.8 10 Sudeste 22 Este 0 -- -- 64
2018-06-29 19:00:00 26.8 10 Este 23 Este 0 -- -- 61
2018-06-29 18:00:00 27.5 11 Sudeste 21 Sudeste 0 -- -- 61
2018-06-29 17:00:00 27.3 13 Sudeste 25 Sudeste 0 -- -- 62
2018-06-29 16:00:00 27.3 12 Sudeste 26 Sudeste 0 -- -- 66
2018-06-29 15:00:00 27.4 13 Sudeste 25 Sudeste 0 -- -- 69
2018-06-29 14:00:00 27.7 13 Sudeste 23 Sudeste 0 -- -- 63
2018-06-29 13:00:00 27.5 14 Sudeste 23 Este 0 -- -- 66
2018-06-29 12:00:00 26.8 14 Sudeste 24 Sudeste 0 -- -- 70
2018-06-29 11:00:00 26.8 13 Sudeste 22 Sudeste 0 -- -- 66
2018-06-29 10:00:00 27.1 7 Sudeste 14 Sudeste 0 -- -- 63
2018-06-29 09:00:00 25.2 4 Norte 9 Noroeste 0 -- -- 70
2018-06-29 08:00:00 22.9 0 Calma 7 Noroeste 0 -- -- 79
2018-06-29 07:00:00 21.4 2 Norte 8 Noroeste 0 -- -- 81
2018-06-29 06:00:00 21.7 0 Calma 8 Noroeste 0 -- -- 80
2018-06-29 05:00:00 21.9 3 Noroeste 7 Nordeste 0 -- -- 79
2018-06-29 04:00:00 22.4 3 Nordeste 11 Nordeste 0 -- -- 78
2018-06-29 03:00:00 22.7 3 Este 10 Este 0 -- -- 76
2018-06-29 02:00:00 23 5 Este 12 Este 0 -- -- 76
2018-06-29 01:00:00 23.5 3 Nordeste 9 Este 0 -- -- 77
2018-06-29 00:00:00 23.9 3 Este 8 Este 0 -- -- 72
2018-06-28 23:00:00 24.4 3 Nordeste 10 Sudeste 0 -- -- 69
2018-06-28 22:00:00 24.8 4 Este 17 Este 0 -- -- 75
2018-06-28 21:00:00 25.3 9 Sudeste 18 Sudeste 0 -- -- 78
2018-06-28 20:00:00 25.6 9 Este 17 Sudeste 0 -- -- 77
2018-06-28 19:00:00 25.8 7 Sur 14 Sur 0 -- -- 75
2018-06-28 18:00:00 26.2 5 Sudoeste 22 Sudoeste 0 -- -- 74
2018-06-28 17:00:00 26.6 9 Sudoeste 26 Oeste 0 -- -- 73
2018-06-28 16:00:00 26.9 11 Sudoeste 24 Sur 0 -- -- 72
2018-06-28 15:00:00 27.5 9 Sudeste 19 Sudeste 0 -- -- 69
2018-06-28 14:00:00 28.4 10 Sudeste 22 Sudeste 0 -- -- 64
2018-06-28 13:00:00 27.9 10 Sudeste 18 Sudeste 0 -- -- 64
2018-06-28 12:00:00 27.4 9 Sudoeste 18 Sudoeste 0 -- -- 64
2018-06-28 11:00:00 26.7 8 Sudoeste 15 Sudoeste 0 -- -- 68
2018-06-28 10:00:00 26.2 6 Sudoeste 15 Sudoeste 0 -- -- 71
2018-06-28 09:00:00 25.1 3 Sudoeste 8 Sudoeste 0 -- -- 74
2018-06-28 08:00:00 23.3 4 Noroeste 7 Noroeste 0 -- -- 78
2018-06-28 07:00:00 22.4 0 Calma -- -- 0 -- -- 83
2018-06-28 06:00:00 22.3 0 Calma -- -- 0 -- -- 83
2018-06-28 05:00:00 22.5 0 Calma 3 Noroeste 0 -- -- 82
2018-06-28 04:00:00 23 0 Calma 9 Oeste 0 -- -- 80
2018-06-28 03:00:00 23.7 3 Oeste 6 Oeste 0 -- -- 79
2018-06-28 02:00:00 24.1 3 Oeste 9 Sur 0 -- -- 78
2018-06-28 01:00:00 24.5 4 Sudoeste 9 Sudoeste 0 -- -- 75
2018-06-28 00:00:00 24.7 5 Oeste 12 Oeste 0 -- -- 74
2018-06-27 23:00:00 24.8 3 Sudoeste 10 Sudoeste 0 -- -- 73
2018-06-27 22:00:00 25.1 4 Sur 12 Sudoeste 0 -- -- 72
2018-06-27 21:00:00 25.3 6 Sur 15 Sur 0 -- -- 72
2018-06-27 20:00:00 25.8 5 Sudoeste 18 Sudoeste 0 -- -- 70
2018-06-27 19:00:00 26.3 8 Sudoeste 20 Sur 0 -- -- 70
2018-06-27 18:00:00 27 7 Sudoeste 21 Sudoeste 0 -- -- 67
2018-06-27 17:00:00 27.3 12 Sudoeste 25 Sudeste 0 -- -- 66
2018-06-27 16:00:00 27.9 9 Sur 22 Sudoeste 0 -- -- 65
2018-06-27 15:00:00 27.7 11 Sudoeste 23 Sudeste 0 -- -- 63
2018-06-27 14:00:00 28.1 10 Sudeste 22 Sudeste 0 -- -- 63
2018-06-27 13:00:00 27.5 14 Sudeste 23 Este 0 -- -- 65
2018-06-27 12:00:00 26.8 9 Sur 16 Sudeste 0 -- -- 69
2018-06-27 11:00:00 26.6 9 Sudeste 14 Sudeste 0 -- -- 68
2018-06-27 10:00:00 25.9 8 Sudeste 13 Sudeste 0 -- -- 71
2018-06-27 09:00:00 24.8 2 Noroeste 9 Noroeste 0 -- -- 72
2018-06-27 08:00:00 22.2 0 Calma 0 Calma 0 -- -- 87
2018-06-27 07:00:00 20.8 0 Calma -- -- 0 -- -- 89
2018-06-27 06:00:00 21 0 Calma 0 Calma 0 -- -- 89
2018-06-27 05:00:00 21.2 0 Calma 5 Noroeste 0 -- -- 88
2018-06-27 04:00:00 21.5 0 Calma -- -- 0 -- -- 87
2018-06-27 03:00:00 22.1 0 Calma -- -- 0 -- -- 86
2018-06-27 02:00:00 22.6 0 Calma 4 Este 0 -- -- 84
2018-06-27 01:00:00 23.2 2 Este 6 Este 0 -- -- 80
2018-06-27 00:00:00 24.1 3 Este 10 Sudeste 0 -- -- 77
2018-06-26 23:00:00 24.5 7 Sudeste 13 Sudeste 0 -- -- 76
2018-06-26 22:00:00 24.5 7 Sudeste 14 Sudeste 0 -- -- 77
2018-06-26 21:00:00 24.8 8 Sudeste 20 Sudeste 0 -- -- 76
2018-06-26 20:00:00 25.5 9 Sudeste 19 Sudeste 0 -- -- 74
2018-06-26 19:00:00 26 9 Sudeste 21 Sudeste 0 -- -- 72
2018-06-26 18:00:00 27 10 Sudeste 22 Sudeste 0 -- -- 69
2018-06-26 17:00:00 27.1 13 Sudeste 26 Este 0 -- -- 63
2018-06-26 16:00:00 27.3 13 Sudeste 25 Sudeste 0 -- -- 66
2018-06-26 15:00:00 27.3 13 Sudeste 22 Sudeste 0 -- -- 68
2018-06-26 14:00:00 27.2 11 Sudeste 21 Sudeste 0 -- -- 69
2018-06-26 13:00:00 26.5 11 Sur 20 Sudeste 0 -- -- 71
2018-06-26 12:00:00 26.5 13 Sudeste 21 Sudeste 0 -- -- 70
2018-06-26 11:00:00 25.9 10 Sudeste 17 Sudeste 0 -- -- 70
2018-06-26 10:00:00 25.2 8 Sudeste 12 Sudeste 0 -- -- 73
2018-06-26 09:00:00 23.8 4 Sudeste 8 Este 0 -- -- 79
2018-06-26 08:00:00 22 3 Este 7 Este 0 -- -- 85
2018-06-26 07:00:00 20.8 0 Calma 4 Este 0 -- -- 87
2018-06-26 06:00:00 20.5 0 Calma 4 Noroeste 0 -- -- 88
2018-06-26 05:00:00 20.8 2 Noroeste 4 Noroeste 0 -- -- 85
2018-06-26 04:00:00 21.4 0 Calma 6 Este 0 -- -- 84
2018-06-26 03:00:00 21.9 3 Nordeste 6 Este 0 -- -- 83
2018-06-26 02:00:00 22.1 2 Este 6 Nordeste 0 -- -- 82
2018-06-26 01:00:00 22.6 2 Nordeste 12 Nordeste 0 -- -- 81
2018-06-26 00:00:00 23 3 Nordeste 10 Este 0 -- -- 79
2018-06-25 23:00:00 23.8 5 Este 12 Este 0 -- -- 75
2018-06-25 22:00:00 24 5 Sudeste 12 Sudeste 0 -- -- 71
2018-06-25 21:00:00 24.4 6 Sudeste 16 Este 0 -- -- 69
2018-06-25 20:00:00 24.9 6 Sur 15 Sudeste 0 -- -- 69
2018-06-25 19:00:00 25.8 9 Sudeste 21 Sudeste 0 -- -- 66
2018-06-25 18:00:00 26.6 10 Sudeste 19 Sudeste 0 -- -- 60
2018-06-25 17:00:00 26.7 13 Sudeste 28 Sudeste 0 -- -- 61
2018-06-25 16:00:00 26.9 13 Sudeste 25 Sudeste 0 -- -- 62
2018-06-25 15:00:00 26.6 14 Sudeste 25 Este 0 -- -- 59
2018-06-25 14:00:00 26.8 14 Sudeste 26 Sudeste 0 -- -- 62
2018-06-25 13:00:00 26.1 14 Sudeste 26 Este 0 -- -- 63
2018-06-25 12:00:00 25.8 9 Sudeste 18 Sudeste 0 -- -- 66
2018-06-25 11:00:00 25.1 8 Sudeste 15 Sudeste 0 -- -- 71
2018-06-25 10:00:00 25 6 Sudeste 12 Sudeste 0 -- -- 70
2018-06-25 09:00:00 23.3 2 Sudoeste 6 Noroeste 0 -- -- 75
2018-06-25 08:00:00 21.8 3 Noroeste 8 Norte 0 -- -- 80
2018-06-25 07:00:00 21.3 4 Norte 8 Noroeste 0 -- -- 82
2018-06-25 06:00:00 21.1 3 Norte 8 Noroeste 0 -- -- 82
2018-06-25 05:00:00 21.6 2 Norte 6 Este 0 -- -- 80
2018-06-25 04:00:00 22.2 2 Este 8 Este 0 -- -- 78
2018-06-25 03:00:00 22.5 2 Este 7 Este 0 -- -- 79
2018-06-25 02:00:00 22.2 2 Este 8 Este 0 -- -- 80
2018-06-25 01:00:00 22.4 3 Este 6 Este 0 -- -- 81
2018-06-25 00:00:00 23 3 Este 9 Sudeste 0 -- -- 76
2018-06-24 23:00:00 23.5 4 Sudeste 8 Sur 0 -- -- 74
2018-06-24 22:00:00 23.7 4 Sudeste 12 Sudeste 0 -- -- 69
2018-06-24 21:00:00 24.1 5 Sudeste 14 Sudeste 0 -- -- 71
2018-06-24 20:00:00 24.7 8 Sudeste 18 Este 0 -- -- 69
2018-06-24 19:00:00 25.4 10 Sudeste 21 Sudeste 0 -- -- 69
2018-06-24 18:00:00 25.8 10 Sudeste 22 Este 0 -- -- 67
2018-06-24 17:00:00 26.2 11 Sudeste 23 Sudeste 0 -- -- 65
2018-06-24 16:00:00 26.5 12 Sudeste 22 Sudeste 0 -- -- 65
2018-06-24 15:00:00 26.3 14 Sudeste 24 Sur 0 -- -- 66
2018-06-24 14:00:00 26.3 13 Sudeste 23 Sudeste 0 -- -- 65
2018-06-24 13:00:00 25.9 13 Sudeste 22 Este 0 -- -- 65
2018-06-24 12:00:00 25.4 12 Sudeste 20 Sudeste 0 -- -- 65
2018-06-24 11:00:00 24.5 9 Sudeste 15 Este 0 -- -- 69
2018-06-24 10:00:00 24.3 6 Sudeste 13 Sudeste 0 -- -- 69
2018-06-24 09:00:00 23.1 5 Sudeste 7 Este 0 -- -- 71
2018-06-24 08:00:00 21.9 2 Sudeste 5 Este 0 -- -- 73
2018-06-24 07:00:00 21.1 4 Este 9 Este 0 -- -- 76
2018-06-24 06:00:00 20.2 5 Noroeste 18 Norte 0 -- -- 76
2018-06-24 05:00:00 20.4 9 Noroeste 13 Noroeste 0 -- -- 74
2018-06-24 04:00:00 20.1 3 Norte 7 Noroeste 0 -- -- 74
2018-06-24 03:00:00 20.5 3 Noroeste 6 Noroeste 0 -- -- 73
2018-06-24 02:00:00 21.1 0 Calma 7 Este 0 -- -- 72
2018-06-24 01:00:00 21.6 3 Este 8 Este 0 -- -- 73
2018-06-24 00:00:00 22.4 5 Este 12 Sudeste 0 -- -- 70
2018-06-23 23:00:00 22.6 6 Este 16 Este 0 -- -- 70
2018-06-23 22:00:00 22.8 7 Sudeste 17 Sudeste 0 -- -- 69
2018-06-23 21:00:00 23.4 8 Este 19 Este 0 -- -- 68
2018-06-23 20:00:00 24.1 10 Sudeste 21 Este 0 -- -- 66
2018-06-23 19:00:00 24.7 11 Sudeste 20 Sudeste 0 -- -- 65
2018-06-23 18:00:00 25.1 12 Sudeste 22 Este 0 -- -- 63
2018-06-23 17:00:00 25.7 15 Sudeste 28 Sudeste 0 -- -- 60
2018-06-23 16:00:00 26.5 14 Sudeste 28 Sudeste 0 -- -- 59
2018-06-23 15:00:00 26.9 12 Sudeste 27 Sudeste 0 -- -- 57
2018-06-23 14:00:00 26.9 17 Sudeste 33 Este 0 -- -- 56
2018-06-23 13:00:00 26.9 17 Sudeste 33 Sudeste 0 -- -- 57
2018-06-23 12:00:00 27.1 14 Este 25 Sudeste 0 -- -- 60
2018-06-23 11:00:00 25.9 10 Sudeste 18 Sudeste 0 -- -- 68
2018-06-23 10:00:00 26.3 8 Sudeste 13 Sudeste 0 -- -- 58
2018-06-23 09:00:00 23.9 2 Noroeste 7 Noroeste 0 -- -- 68
2018-06-23 08:00:00 23.1 3 Norte 6 Noroeste 0 -- -- 85
2018-06-23 07:00:00 22.1 2 Noroeste 5 Noroeste 0 -- -- 89
2018-06-23 06:00:00 22.2 2 Noroeste 5 Noroeste 0 -- -- 87
2018-06-23 05:00:00 23.1 3 Este 10 Este 0 -- -- 85
2018-06-23 04:00:00 23.5 5 Este 12 Este 0 -- -- 87
2018-06-23 03:00:00 23.5 0 Calma 7 Este 0 -- -- 89
2018-06-23 02:00:00 23.3 3 Este 8 Este 0 -- -- 87
2018-06-23 01:00:00 23.6 3 Este 9 Este 0 -- -- 85
2018-06-23 00:00:00 24 4 Este 12 Este 0 -- -- 85
2018-06-22 23:00:00 24.5 6 Sudeste 12 Este 0 -- -- 82
2018-06-22 22:00:00 25 6 Sudeste 13 Este 0 -- -- 76
2018-06-22 21:00:00 25.7 6 Sudeste 13 Este 0 -- -- 74
2018-06-22 20:00:00 26.3 8 Sur 17 Sudoeste 0 -- -- 67
2018-06-22 19:00:00 27.2 9 Sudeste 17 Sudeste 0 -- -- 61
2018-06-22 18:00:00 28.3 7 Sur 21 Sur 0 -- -- 54
2018-06-22 17:00:00 29 9 Sudoeste 21 Sudoeste 0 -- -- 52
2018-06-22 16:00:00 29 11 Sudeste 21 Sudoeste 0 -- -- 55
2018-06-22 15:00:00 29.1 9 Sur 21 Sudeste 0 -- -- 57
2018-06-22 14:00:00 28.8 10 Sudoeste 21 Sudoeste 0 -- -- 63
2018-06-22 13:00:00 29 12 Sudeste 19 Sudeste 0 -- -- 57
2018-06-22 12:00:00 28.3 9 Sur 17 Sudeste 0 -- -- 60
2018-06-22 11:00:00 27.7 6 Sur 15 Oeste 0 -- -- 63
2018-06-22 10:00:00 26.6 8 Sur 13 Sudoeste 0 -- -- 68
2018-06-22 09:00:00 24.7 3 Noroeste 7 Noroeste 0 -- -- 59
2018-06-22 08:00:00 22.1 0 Calma 0 Calma 0 -- -- 77
2018-06-22 07:00:00 20.9 0 Calma 3 Noroeste 0 -- -- 77
2018-06-22 06:00:00 21.3 2 Noroeste 8 Noroeste 0 -- -- 76
2018-06-22 05:00:00 22.3 0 Calma 5 Noroeste 0 -- -- 79
2018-06-22 04:00:00 22.5 0 Calma 4 Noroeste 0 -- -- 81
2018-06-22 03:00:00 23.1 0 Calma 5 Este 0 -- -- 77
2018-06-22 02:00:00 23.5 0 Calma 4 Sudeste 0 -- -- 74
2018-06-22 01:00:00 24 2 Noroeste 6 Oeste 0 -- -- 75
2018-06-22 00:00:00 24.3 4 Oeste 11 Oeste 0 -- -- 73
2018-06-21 23:00:00 24.5 3 Sudoeste 10 Sudoeste 0 -- -- 70
2018-06-21 22:00:00 24.6 5 Sudoeste 14 Sudoeste 0 -- -- 66
2018-06-21 21:00:00 25.3 4 Sudoeste 11 Oeste 0 -- -- 65
2018-06-21 20:00:00 26.2 5 Sudoeste 12 Sur 0 -- -- 59
2018-06-21 19:00:00 27.2 7 Sudoeste 17 Sudoeste 0 -- -- 53
2018-06-21 18:00:00 27.9 8 Sudoeste 18 Sudoeste 0 -- -- 52
2018-06-21 17:00:00 28 8 Sur 17 Sudoeste 0 -- -- 53
2018-06-21 16:00:00 28 9 Sur 19 Sudoeste 0 -- -- 49
2018-06-21 15:00:00 28.2 10 Sudoeste 19 Sudoeste 0 -- -- 49
2018-06-21 14:00:00 27.7 10 Sudoeste 19 Sudoeste 0 -- -- 45
2018-06-21 13:00:00 27.6 9 Sur 19 Sur 0 -- -- 52
2018-06-21 12:00:00 27.7 7 Sur 15 Sudoeste 0 -- -- 47
2018-06-21 11:00:00 27 8 Sur 14 Sur 0 -- -- 48
2018-06-21 10:00:00 27.3 5 Oeste 10 Sudoeste 0 -- -- 43
2018-06-21 09:00:00 24.6 5 Noroeste 11 Noroeste 0 -- -- 52
2018-06-21 08:00:00 20.7 3 Noroeste 9 Noroeste 0 -- -- 58
2018-06-21 07:00:00 18.8 5 Noroeste 10 Norte 0 -- -- 63
2018-06-21 06:00:00 18.5 4 Noroeste 9 Noroeste 0 -- -- 66
2018-06-21 05:00:00 19 4 Noroeste 9 Noroeste 0 -- -- 68
2018-06-21 04:00:00 19.4 4 Noroeste 6 Noroeste 0 -- -- 75
2018-06-21 03:00:00 19.6 0 Calma 6 Norte 0 -- -- 77
2018-06-21 02:00:00 20.4 0 Calma 5 Noroeste 0 -- -- 84
2018-06-21 01:00:00 21.4 3 Norte 5 Norte 0 -- -- 82
2018-06-21 00:00:00 22.1 0 Calma 4 Sur 0 -- -- 80
2018-06-20 23:00:00 22.9 0 Calma 6 Sudoeste 0 -- -- 74
2018-06-20 22:00:00 23.9 3 Sur 8 Sudeste 0 -- -- 74
2018-06-20 21:00:00 24.9 4 Sudeste 11 Sudeste 0 -- -- 69
2018-06-20 20:00:00 25.7 6 Sudoeste 13 Sudoeste 0 -- -- 62
2018-06-20 19:00:00 26.6 6 Sur 14 Sudoeste 0 -- -- 62
2018-06-20 18:00:00 27.3 8 Sudeste 15 Sudeste 0 -- -- 60
2018-06-20 17:00:00 27.2 6 Sur 17 Sudeste 0 -- -- 53
2018-06-20 16:00:00 27.3 9 Sudeste 17 Sur 0 -- -- 59
2018-06-20 15:00:00 27.6 10 Sudeste 15 Sudeste 0 -- -- 56
2018-06-20 14:00:00 27.6 8 Sudeste 17 Sudeste 0 -- -- 59
2018-06-20 13:00:00 26.6 8 Sur 15 Sudeste 0 -- -- 63
2018-06-20 12:00:00 26.6 7 Sudeste 14 Sudeste 0 -- -- 60
2018-06-20 11:00:00 25.8 6 Sur 14 Sudeste 0 -- -- 63
2018-06-20 10:00:00 24.8 5 Sur 10 Sudoeste 0 -- -- 60
2018-06-20 09:00:00 23 4 Sudoeste 8 Oeste 0 -- -- 65
2018-06-20 08:00:00 19.4 3 Noroeste 7 Noroeste 0 -- -- 73
2018-06-20 07:00:00 17.8 2 Norte 7 Noroeste 0 -- -- 78
2018-06-20 06:00:00 18.2 2 Noroeste 5 Noroeste 0 -- -- 77
2018-06-20 05:00:00 18.8 4 Noroeste 11 Noroeste 0 -- -- 76
2018-06-20 04:00:00 18.9 3 Noroeste 7 Noroeste 0 -- -- 81
2018-06-20 03:00:00 19.4 0 Calma 4 Noroeste 0 -- -- 84
2018-06-20 02:00:00 20.1 2 Noroeste 5 Norte 0 -- -- 84
2018-06-20 01:00:00 20.6 3 Norte 6 Noroeste 0 -- -- 83
2018-06-20 00:00:00 21.4 0 Calma 5 Sudeste 0 -- -- 81
2018-06-19 23:00:00 22.4 3 Sur 10 Sudeste 0 -- -- 77
2018-06-19 22:00:00 22.7 4 Sur 13 Oeste 0 -- -- 74
2018-06-19 21:00:00 23.4 5 Sudoeste 13 Sudoeste 0 -- -- 69
2018-06-19 20:00:00 24.1 6 Sudeste 15 Sudeste 0 -- -- 64
2018-06-19 19:00:00 25.3 7 Sur 21 Oeste 0 -- -- 56
2018-06-19 18:00:00 26.3 9 Sudoeste 20 Oeste 0 -- -- 52
2018-06-19 17:00:00 26.9 9 Sudoeste 23 Sudoeste 0 -- -- 54
2018-06-19 16:00:00 26.5 10 Sudoeste 24 Sudoeste 0 -- -- 54
2018-06-19 15:00:00 25.8 11 Sudeste 23 Sudeste 0 -- -- 57
2018-06-19 14:00:00 25.8 10 Sur 23 Sudeste 0 -- -- 56
2018-06-19 13:00:00 25.4 12 Sudeste -- -- -- -- -- 59
2018-06-19 12:00:00 -- -- -- -- -- -- -- -- --
2018-06-19 11:00:00 -- -- -- -- -- -- -- -- --
2018-06-19 10:00:00 -- 5 Noroeste 11 Norte 0 -- -- --
2018-06-19 09:00:00 23.5 3 Noroeste 9 Noroeste 0 -- -- 52
2018-06-19 08:00:00 20 2 Norte 6 Norte 0 -- -- 64
2018-06-19 07:00:00 18.4 2 Norte 6 Norte 0 -- -- 69
2018-06-19 06:00:00 18.2 2 Noroeste 6 Norte 0 -- -- 69
2018-06-19 05:00:00 19 5 Noroeste 15 Noroeste 0 -- -- 65
2018-06-19 04:00:00 19.9 9 Noroeste 18 Noroeste 0 -- -- 64
2018-06-19 03:00:00 19 5 Noroeste 9 Noroeste 0 -- -- 67
2018-06-19 02:00:00 19.6 6 Noroeste 10 Noroeste 0 -- -- 66
2018-06-19 01:00:00 20.2 3 Noroeste 8 Noroeste 0 -- -- 68
2018-06-19 00:00:00 20.9 0 Calma 4 Noroeste 0 -- -- 77
2018-06-18 23:00:00 21.7 0 Calma 5 Sur 0 -- -- 72
2018-06-18 22:00:00 22.6 2 Sudoeste 9 Sudeste 0 -- -- 63
2018-06-18 21:00:00 23.5 4 Sudoeste 12 Sur 0 -- -- 54
2018-06-18 20:00:00 24 4 Sur 14 Sudeste 0 -- -- 55
2018-06-18 19:00:00 24.9 6 Sudoeste 21 Oeste 0 -- -- 48
2018-06-18 18:00:00 25.6 8 Sur 21 Sudoeste 0 -- -- 53
2018-06-18 17:00:00 26.1 10 Sudoeste 22 Sudoeste 0 -- -- 47
2018-06-18 16:00:00 26 10 Sur 24 Sudoeste 0 -- -- 51
2018-06-18 15:00:00 26.8 10 Sudeste 21 Sudeste 0 -- -- 40
2018-06-18 14:00:00 27.2 11 Sudeste 21 Sudeste 0 -- -- 36
2018-06-18 13:00:00 27.3 9 Sudoeste 17 Sudoeste 0 -- -- 38
2018-06-18 12:00:00 27.3 8 Sur 15 Sudoeste 0 -- -- 38
2018-06-18 11:00:00 26.7 5 Noroeste 14 Norte 0 -- -- 38
2018-06-18 10:00:00 25.2 6 Norte 13 Noroeste 0 -- -- 47
2018-06-18 09:00:00 22 5 Noroeste 12 Nordeste 0 -- -- 58
2018-06-18 08:00:00 18.8 5 Norte 12 Noroeste 0 -- -- 64
2018-06-18 07:00:00 17.9 5 Norte 12 Norte 0 -- -- 73
2018-06-18 06:00:00 17.6 4 Norte 12 Norte 0 -- -- 74
2018-06-18 05:00:00 17.7 6 Norte 9 Noroeste 0 -- -- 73
2018-06-18 04:00:00 18.2 3 Norte 8 Noroeste 0 -- -- 75
2018-06-18 03:00:00 19 0 Calma 5 Este 0 -- -- 78
2018-06-18 02:00:00 19.4 2 Este 5 Este 0 -- -- 76
2018-06-18 01:00:00 20 0 Calma 7 Este 0 -- -- 75
2018-06-18 00:00:00 20.7 4 Sudeste 8 Este 0 -- -- 74
2018-06-17 23:00:00 21 2 Nordeste 8 Este 0 -- -- 71
2018-06-17 22:00:00 21.9 4 Este 10 Sudeste 0 -- -- 68
2018-06-17 21:00:00 23 5 Sur 12 Sudoeste 0 -- -- 60
2018-06-17 20:00:00 23.6 6 Sudoeste 18 Sudoeste 0 -- -- 53
2018-06-17 19:00:00 24.1 8 Sudoeste 22 Sudoeste 0 -- -- 51
2018-06-17 18:00:00 24.6 11 Sur 26 Sudeste 0 -- -- 60
2018-06-17 17:00:00 25.9 13 Sudeste 22 Sudeste 0 -- -- 52
2018-06-17 16:00:00 25.6 11 Sudeste 21 Sudeste 0 -- -- 48
2018-06-17 15:00:00 25.7 12 Sudeste 23 Este 0 -- -- 51
2018-06-17 14:00:00 25.9 13 Sudeste 24 Sudeste 0 -- -- 48
2018-06-17 13:00:00 26.9 10 Sudeste 22 Sudeste 0 -- -- 43
2018-06-17 12:00:00 27.6 6 Sudoeste 15 Norte 0 -- -- 39
2018-06-17 11:00:00 25.9 5 Noroeste 17 Noroeste 0 -- -- 44
2018-06-17 10:00:00 23.8 4 Oeste 13 Oeste 0 -- -- 48
2018-06-17 09:00:00 21 5 Noroeste 13 Noroeste 0 -- -- 57
2018-06-17 08:00:00 17.3 6 Noroeste 13 Noroeste 0 -- -- 75
2018-06-17 07:00:00 15.9 2 Noroeste 7 Noroeste 0 -- -- 84
2018-06-17 06:00:00 17.1 2 Noroeste 10 Noroeste 0 -- -- 90
2018-06-17 05:00:00 18.5 0 Calma 6 Noroeste 0 -- -- 92
2018-06-17 04:00:00 19.3 2 Norte 5 Noroeste 0 -- -- 92
2018-06-17 03:00:00 20 0 Calma 4 Este 0 -- -- 91
2018-06-17 02:00:00 20.5 0 Calma 7 Este 0 -- -- 90
2018-06-17 01:00:00 20.9 2 Este 8 Este 0 -- -- 90
2018-06-17 00:00:00 21.1 5 Este 8 Este 0 -- -- 89